sensor_id;sensor_type;location;lat;lon;timestamp;P1;durP1;ratioP1;P2;durP2;ratioP2
67839;SDS011;54636;51.684;5.142;2023-06-22T00:02:22;6.25;;;5.50;;
67839;SDS011;54636;51.684;5.142;2023-06-22T00:04:47;5.68;;;5.25;;
67839;SDS011;54636;51.684;5.142;2023-06-22T00:07:12;5.95;;;5.43;;
67839;SDS011;54636;51.684;5.142;2023-06-22T00:09:38;7.85;;;5.47;;
67839;SDS011;54636;51.684;5.142;2023-06-22T00:12:03;5.63;;;5.18;;
67839;SDS011;54636;51.684;5.142;2023-06-22T00:14:29;6.20;;;5.53;;
67839;SDS011;54636;51.684;5.142;2023-06-22T00:16:54;6.28;;;5.78;;
67839;SDS011;54636;51.684;5.142;2023-06-22T00:19:22;6.13;;;5.60;;
67839;SDS011;54636;51.684;5.142;2023-06-22T00:21:48;6.82;;;6.22;;
67839;SDS011;54636;51.684;5.142;2023-06-22T00:24:18;6.78;;;6.25;;
67839;SDS011;54636;51.684;5.142;2023-06-22T00:26:44;8.13;;;6.55;;
67839;SDS011;54636;51.684;5.142;2023-06-22T00:29:10;6.57;;;5.95;;
67839;SDS011;54636;51.684;5.142;2023-06-22T00:31:35;6.00;;;5.50;;
67839;SDS011;54636;51.684;5.142;2023-06-22T00:34:00;6.78;;;6.18;;
67839;SDS011;54636;51.684;5.142;2023-06-22T00:36:26;6.65;;;6.05;;
67839;SDS011;54636;51.684;5.142;2023-06-22T00:38:51;6.80;;;6.10;;
67839;SDS011;54636;51.684;5.142;2023-06-22T00:41:17;9.93;;;6.65;;
67839;SDS011;54636;51.684;5.142;2023-06-22T00:43:42;6.50;;;5.85;;
67839;SDS011;54636;51.684;5.142;2023-06-22T00:46:08;6.97;;;6.38;;
67839;SDS011;54636;51.684;5.142;2023-06-22T00:48:33;7.65;;;7.05;;
67839;SDS011;54636;51.684;5.142;2023-06-22T00:51:01;7.57;;;6.88;;
67839;SDS011;54636;51.684;5.142;2023-06-22T00:53:27;7.47;;;6.75;;
67839;SDS011;54636;51.684;5.142;2023-06-22T00:55:52;8.20;;;7.38;;
67839;SDS011;54636;51.684;5.142;2023-06-22T00:58:18;7.20;;;6.50;;
67839;SDS011;54636;51.684;5.142;2023-06-22T01:00:46;8.52;;;7.20;;
67839;SDS011;54636;51.684;5.142;2023-06-22T01:03:12;7.75;;;6.75;;
67839;SDS011;54636;51.684;5.142;2023-06-22T01:05:38;7.93;;;7.22;;
67839;SDS011;54636;51.684;5.142;2023-06-22T01:08:27;8.05;;;6.88;;
67839;SDS011;54636;51.684;5.142;2023-06-22T01:13:40;7.65;;;6.95;;
67839;SDS011;54636;51.684;5.142;2023-06-22T01:16:11;8.60;;;7.80;;
67839;SDS011;54636;51.684;5.142;2023-06-22T01:18:42;8.15;;;7.45;;
67839;SDS011;54636;51.684;5.142;2023-06-22T01:21:09;9.77;;;8.75;;
67839;SDS011;54636;51.684;5.142;2023-06-22T01:26:41;8.75;;;8.02;;
67839;SDS011;54636;51.684;5.142;2023-06-22T01:29:12;8.50;;;7.30;;
67839;SDS011;54636;51.684;5.142;2023-06-22T01:31:40;8.45;;;7.75;;
67839;SDS011;54636;51.684;5.142;2023-06-22T01:34:07;9.50;;;8.48;;
67839;SDS011;54636;51.684;5.142;2023-06-22T01:36:34;9.25;;;8.45;;
67839;SDS011;54636;51.684;5.142;2023-06-22T01:39:00;9.60;;;8.75;;
67839;SDS011;54636;51.684;5.142;2023-06-22T01:41:29;9.93;;;8.32;;
67839;SDS011;54636;51.684;5.142;2023-06-22T01:43:56;9.32;;;8.40;;
67839;SDS011;54636;51.684;5.142;2023-06-22T01:46:22;10.95;;;9.32;;
67839;SDS011;54636;51.684;5.142;2023-06-22T01:48:48;11.73;;;9.60;;
67839;SDS011;54636;51.684;5.142;2023-06-22T01:51:14;10.10;;;9.10;;
67839;SDS011;54636;51.684;5.142;2023-06-22T01:53:40;9.10;;;8.30;;
67839;SDS011;54636;51.684;5.142;2023-06-22T01:56:06;9.82;;;8.82;;
67839;SDS011;54636;51.684;5.142;2023-06-22T01:58:31;10.30;;;8.68;;
67839;SDS011;54636;51.684;5.142;2023-06-22T02:01:07;9.75;;;8.85;;
67839;SDS011;54636;51.684;5.142;2023-06-22T02:03:37;13.50;;;8.25;;
67839;SDS011;54636;51.684;5.142;2023-06-22T02:06:27;9.95;;;9.10;;
67839;SDS011;54636;51.684;5.142;2023-06-22T02:09:00;9.48;;;8.57;;
67839;SDS011;54636;51.684;5.142;2023-06-22T02:11:27;9.85;;;9.00;;
67839;SDS011;54636;51.684;5.142;2023-06-22T02:13:55;11.38;;;10.27;;
67839;SDS011;54636;51.684;5.142;2023-06-22T02:16:22;10.80;;;9.45;;
67839;SDS011;54636;51.684;5.142;2023-06-22T02:18:48;10.60;;;9.57;;
67839;SDS011;54636;51.684;5.142;2023-06-22T02:21:18;15.85;;;10.20;;
67839;SDS011;54636;51.684;5.142;2023-06-22T02:23:46;11.20;;;10.20;;
67839;SDS011;54636;51.684;5.142;2023-06-22T02:26:12;10.65;;;9.57;;
67839;SDS011;54636;51.684;5.142;2023-06-22T02:28:38;13.52;;;10.30;;
67839;SDS011;54636;51.684;5.142;2023-06-22T02:31:03;10.38;;;9.50;;
67839;SDS011;54636;51.684;5.142;2023-06-22T02:33:29;11.00;;;9.88;;
67839;SDS011;54636;51.684;5.142;2023-06-22T02:35:54;11.18;;;9.52;;
67839;SDS011;54636;51.684;5.142;2023-06-22T02:38:20;12.60;;;11.02;;
67839;SDS011;54636;51.684;5.142;2023-06-22T02:40:45;12.23;;;10.95;;
67839;SDS011;54636;51.684;5.142;2023-06-22T02:43:11;11.18;;;10.07;;
67839;SDS011;54636;51.684;5.142;2023-06-22T02:45:37;12.50;;;11.20;;
67839;SDS011;54636;51.684;5.142;2023-06-22T02:48:03;12.63;;;11.48;;
67839;SDS011;54636;51.684;5.142;2023-06-22T02:50:29;13.95;;;12.05;;
67839;SDS011;54636;51.684;5.142;2023-06-22T02:52:54;11.98;;;10.77;;
67839;SDS011;54636;51.684;5.142;2023-06-22T02:55:20;12.75;;;10.65;;
67839;SDS011;54636;51.684;5.142;2023-06-22T02:57:45;13.60;;;11.60;;
67839;SDS011;54636;51.684;5.142;2023-06-22T03:00:12;12.43;;;11.18;;
67839;SDS011;54636;51.684;5.142;2023-06-22T03:02:45;12.23;;;11.00;;
67839;SDS011;54636;51.684;5.142;2023-06-22T03:05:11;13.35;;;11.90;;
67839;SDS011;54636;51.684;5.142;2023-06-22T03:07:39;14.25;;;12.75;;
67839;SDS011;54636;51.684;5.142;2023-06-22T03:10:06;14.35;;;12.90;;
67839;SDS011;54636;51.684;5.142;2023-06-22T03:12:34;13.93;;;12.50;;
67839;SDS011;54636;51.684;5.142;2023-06-22T03:14:59;15.90;;;12.77;;
67839;SDS011;54636;51.684;5.142;2023-06-22T03:17:25;13.68;;;12.32;;
67839;SDS011;54636;51.684;5.142;2023-06-22T03:19:50;16.33;;;12.57;;
67839;SDS011;54636;51.684;5.142;2023-06-22T03:22:15;14.73;;;13.07;;
67839;SDS011;54636;51.684;5.142;2023-06-22T03:24:41;14.05;;;12.65;;
67839;SDS011;54636;51.684;5.142;2023-06-22T03:27:06;14.43;;;12.63;;
67839;SDS011;54636;51.684;5.142;2023-06-22T03:29:31;14.57;;;13.05;;
67839;SDS011;54636;51.684;5.142;2023-06-22T03:31:57;19.17;;;13.25;;
67839;SDS011;54636;51.684;5.142;2023-06-22T03:34:22;16.35;;;11.85;;
67839;SDS011;54636;51.684;5.142;2023-06-22T03:36:48;14.57;;;13.15;;
67839;SDS011;54636;51.684;5.142;2023-06-22T03:39:13;14.35;;;12.85;;
67839;SDS011;54636;51.684;5.142;2023-06-22T03:41:38;16.00;;;12.48;;
67839;SDS011;54636;51.684;5.142;2023-06-22T03:44:04;13.93;;;12.30;;
67839;SDS011;54636;51.684;5.142;2023-06-22T03:46:29;13.52;;;12.18;;
67839;SDS011;54636;51.684;5.142;2023-06-22T03:48:55;13.50;;;12.23;;
67839;SDS011;54636;51.684;5.142;2023-06-22T03:51:20;14.30;;;12.80;;
67839;SDS011;54636;51.684;5.142;2023-06-22T03:53:46;15.50;;;13.27;;
67839;SDS011;54636;51.684;5.142;2023-06-22T03:56:11;13.98;;;11.98;;
67839;SDS011;54636;51.684;5.142;2023-06-22T03:58:37;16.67;;;13.18;;
67839;SDS011;54636;51.684;5.142;2023-06-22T04:01:07;13.45;;;12.13;;
67839;SDS011;54636;51.684;5.142;2023-06-22T04:03:36;13.88;;;12.65;;
67839;SDS011;54636;51.684;5.142;2023-06-22T04:06:02;14.75;;;13.23;;
67839;SDS011;54636;51.684;5.142;2023-06-22T04:08:27;17.05;;;13.63;;
67839;SDS011;54636;51.684;5.142;2023-06-22T04:10:53;16.85;;;13.77;;
67839;SDS011;54636;51.684;5.142;2023-06-22T04:13:18;15.98;;;13.85;;
67839;SDS011;54636;51.684;5.142;2023-06-22T04:15:44;16.48;;;12.77;;
67839;SDS011;54636;51.684;5.142;2023-06-22T04:18:09;15.02;;;13.50;;
67839;SDS011;54636;51.684;5.142;2023-06-22T04:20:34;14.45;;;12.85;;
67839;SDS011;54636;51.684;5.142;2023-06-22T04:23:00;14.30;;;12.70;;
67839;SDS011;54636;51.684;5.142;2023-06-22T04:25:25;15.57;;;11.98;;
67839;SDS011;54636;51.684;5.142;2023-06-22T04:27:50;15.98;;;13.18;;
67839;SDS011;54636;51.684;5.142;2023-06-22T04:30:16;17.45;;;12.52;;
67839;SDS011;54636;51.684;5.142;2023-06-22T04:32:42;18.10;;;12.73;;
67839;SDS011;54636;51.684;5.142;2023-06-22T04:35:08;15.65;;;11.52;;
67839;SDS011;54636;51.684;5.142;2023-06-22T04:37:33;13.48;;;11.93;;
67839;SDS011;54636;51.684;5.142;2023-06-22T04:39:59;16.17;;;13.02;;
67839;SDS011;54636;51.684;5.142;2023-06-22T04:42:26;13.85;;;12.43;;
67839;SDS011;54636;51.684;5.142;2023-06-22T04:44:52;15.68;;;11.63;;
67839;SDS011;54636;51.684;5.142;2023-06-22T04:47:17;13.23;;;11.05;;
67839;SDS011;54636;51.684;5.142;2023-06-22T04:49:43;14.70;;;11.52;;
67839;SDS011;54636;51.684;5.142;2023-06-22T04:52:11;20.38;;;12.27;;
67839;SDS011;54636;51.684;5.142;2023-06-22T04:54:38;11.38;;;10.20;;
67839;SDS011;54636;51.684;5.142;2023-06-22T04:57:05;14.60;;;10.90;;
67839;SDS011;54636;51.684;5.142;2023-06-22T05:02:01;12.05;;;10.93;;
67839;SDS011;54636;51.684;5.142;2023-06-22T05:04:28;13.32;;;11.07;;
67839;SDS011;54636;51.684;5.142;2023-06-22T05:06:58;12.10;;;10.82;;
67839;SDS011;54636;51.684;5.142;2023-06-22T05:09:25;16.48;;;11.40;;
67839;SDS011;54636;51.684;5.142;2023-06-22T05:11:50;14.32;;;11.02;;
67839;SDS011;54636;51.684;5.142;2023-06-22T05:14:16;10.55;;;9.55;;
67839;SDS011;54636;51.684;5.142;2023-06-22T05:16:41;11.45;;;9.13;;
67839;SDS011;54636;51.684;5.142;2023-06-22T05:19:07;10.32;;;9.30;;
67839;SDS011;54636;51.684;5.142;2023-06-22T05:21:33;12.35;;;9.52;;
67839;SDS011;54636;51.684;5.142;2023-06-22T05:23:58;11.00;;;9.38;;
67839;SDS011;54636;51.684;5.142;2023-06-22T05:26:28;10.68;;;9.25;;
67839;SDS011;54636;51.684;5.142;2023-06-22T05:28:55;9.93;;;9.02;;
67839;SDS011;54636;51.684;5.142;2023-06-22T05:31:21;9.60;;;8.55;;
67839;SDS011;54636;51.684;5.142;2023-06-22T05:33:46;9.75;;;8.85;;
67839;SDS011;54636;51.684;5.142;2023-06-22T05:36:13;12.35;;;8.75;;
67839;SDS011;54636;51.684;5.142;2023-06-22T05:38:39;13.90;;;8.75;;
67839;SDS011;54636;51.684;5.142;2023-06-22T05:41:05;10.13;;;9.18;;
67839;SDS011;54636;51.684;5.142;2023-06-22T05:43:31;10.38;;;8.93;;
67839;SDS011;54636;51.684;5.142;2023-06-22T05:45:56;11.55;;;9.82;;
67839;SDS011;54636;51.684;5.142;2023-06-22T05:48:22;14.20;;;9.25;;
67839;SDS011;54636;51.684;5.142;2023-06-22T05:50:48;9.77;;;8.63;;
67839;SDS011;54636;51.684;5.142;2023-06-22T05:53:13;12.68;;;9.30;;
67839;SDS011;54636;51.684;5.142;2023-06-22T05:55:39;9.13;;;8.32;;
67839;SDS011;54636;51.684;5.142;2023-06-22T05:58:04;8.80;;;7.90;;
67839;SDS011;54636;51.684;5.142;2023-06-22T06:00:30;12.18;;;9.57;;
67839;SDS011;54636;51.684;5.142;2023-06-22T06:02:56;10.32;;;9.38;;
67839;SDS011;54636;51.684;5.142;2023-06-22T06:05:21;11.90;;;9.20;;
67839;SDS011;54636;51.684;5.142;2023-06-22T06:07:48;17.08;;;9.50;;
67839;SDS011;54636;51.684;5.142;2023-06-22T06:10:14;10.80;;;9.80;;
67839;SDS011;54636;51.684;5.142;2023-06-22T06:12:39;10.77;;;9.77;;
67839;SDS011;54636;51.684;5.142;2023-06-22T06:15:05;13.20;;;9.75;;
67839;SDS011;54636;51.684;5.142;2023-06-22T06:17:30;13.85;;;10.93;;
67839;SDS011;54636;51.684;5.142;2023-06-22T06:19:56;12.05;;;9.52;;
67839;SDS011;54636;51.684;5.142;2023-06-22T06:22:23;11.20;;;10.02;;
67839;SDS011;54636;51.684;5.142;2023-06-22T06:24:49;10.85;;;9.77;;
67839;SDS011;54636;51.684;5.142;2023-06-22T06:27:14;11.68;;;10.52;;
67839;SDS011;54636;51.684;5.142;2023-06-22T06:29:40;15.27;;;10.40;;
67839;SDS011;54636;51.684;5.142;2023-06-22T06:32:06;11.32;;;7.70;;
67839;SDS011;54636;51.684;5.142;2023-06-22T06:34:31;13.40;;;10.95;;
67839;SDS011;54636;51.684;5.142;2023-06-22T06:36:57;16.20;;;10.13;;
67839;SDS011;54636;51.684;5.142;2023-06-22T06:39:22;12.95;;;10.05;;
67839;SDS011;54636;51.684;5.142;2023-06-22T06:41:47;10.38;;;9.48;;
67839;SDS011;54636;51.684;5.142;2023-06-22T06:44:13;11.93;;;9.13;;
67839;SDS011;54636;51.684;5.142;2023-06-22T06:46:38;11.65;;;9.68;;
67839;SDS011;54636;51.684;5.142;2023-06-22T06:49:04;11.05;;;9.90;;
67839;SDS011;54636;51.684;5.142;2023-06-22T06:51:29;10.52;;;9.43;;
67839;SDS011;54636;51.684;5.142;2023-06-22T06:53:54;10.95;;;9.43;;
67839;SDS011;54636;51.684;5.142;2023-06-22T06:56:20;12.27;;;9.70;;
67839;SDS011;54636;51.684;5.142;2023-06-22T06:58:45;12.02;;;9.68;;
67839;SDS011;54636;51.684;5.142;2023-06-22T07:01:11;9.82;;;8.98;;
67839;SDS011;54636;51.684;5.142;2023-06-22T07:03:37;12.07;;;9.82;;
67839;SDS011;54636;51.684;5.142;2023-06-22T07:06:03;10.07;;;8.73;;
67839;SDS011;54636;51.684;5.142;2023-06-22T07:08:29;10.18;;;9.15;;
67839;SDS011;54636;51.684;5.142;2023-06-22T07:10:54;10.82;;;9.55;;
67839;SDS011;54636;51.684;5.142;2023-06-22T07:13:20;11.10;;;9.43;;
67839;SDS011;54636;51.684;5.142;2023-06-22T07:15:45;16.05;;;10.57;;
67839;SDS011;54636;51.684;5.142;2023-06-22T07:18:11;11.80;;;10.60;;
67839;SDS011;54636;51.684;5.142;2023-06-22T07:20:36;15.77;;;10.60;;
67839;SDS011;54636;51.684;5.142;2023-06-22T07:23:02;14.18;;;11.57;;
67839;SDS011;54636;51.684;5.142;2023-06-22T07:25:27;15.85;;;10.77;;
67839;SDS011;54636;51.684;5.142;2023-06-22T07:27:59;12.85;;;10.57;;
67839;SDS011;54636;51.684;5.142;2023-06-22T07:30:27;12.48;;;11.15;;
67839;SDS011;54636;51.684;5.142;2023-06-22T07:32:53;14.45;;;11.82;;
67839;SDS011;54636;51.684;5.142;2023-06-22T07:35:18;13.43;;;11.82;;
67839;SDS011;54636;51.684;5.142;2023-06-22T07:37:44;12.90;;;11.10;;
67839;SDS011;54636;51.684;5.142;2023-06-22T07:40:09;13.10;;;11.70;;
67839;SDS011;54636;51.684;5.142;2023-06-22T07:42:38;13.70;;;11.85;;
67839;SDS011;54636;51.684;5.142;2023-06-22T07:45:04;12.27;;;10.23;;
67839;SDS011;54636;51.684;5.142;2023-06-22T07:47:30;15.73;;;10.80;;
67839;SDS011;54636;51.684;5.142;2023-06-22T07:50:00;12.73;;;11.57;;
67839;SDS011;54636;51.684;5.142;2023-06-22T07:52:26;11.93;;;10.93;;
67839;SDS011;54636;51.684;5.142;2023-06-22T07:54:52;14.68;;;11.00;;
67839;SDS011;54636;51.684;5.142;2023-06-22T07:57:17;12.43;;;11.10;;
67839;SDS011;54636;51.684;5.142;2023-06-22T07:59:43;13.18;;;11.77;;
67839;SDS011;54636;51.684;5.142;2023-06-22T08:02:09;11.82;;;10.63;;
67839;SDS011;54636;51.684;5.142;2023-06-22T08:04:35;14.82;;;11.20;;
67839;SDS011;54636;51.684;5.142;2023-06-22T08:07:04;13.52;;;12.13;;
67839;SDS011;54636;51.684;5.142;2023-06-22T08:09:30;12.20;;;11.00;;
67839;SDS011;54636;51.684;5.142;2023-06-22T08:11:57;17.35;;;11.57;;
67839;SDS011;54636;51.684;5.142;2023-06-22T08:14:26;14.32;;;12.32;;
67839;SDS011;54636;51.684;5.142;2023-06-22T08:19:17;16.10;;;11.83;;
67839;SDS011;54636;51.684;5.142;2023-06-22T08:21:43;13.00;;;11.68;;
67839;SDS011;54636;51.684;5.142;2023-06-22T08:24:08;12.70;;;11.38;;
67839;SDS011;54636;51.684;5.142;2023-06-22T08:26:34;16.77;;;12.50;;
67839;SDS011;54636;51.684;5.142;2023-06-22T08:29:02;12.60;;;11.38;;
67839;SDS011;54636;51.684;5.142;2023-06-22T08:31:31;15.50;;;12.68;;
67839;SDS011;54636;51.684;5.142;2023-06-22T08:33:58;12.30;;;10.85;;
67839;SDS011;54636;51.684;5.142;2023-06-22T08:36:24;18.50;;;11.70;;
67839;SDS011;54636;51.684;5.142;2023-06-22T08:38:50;17.38;;;12.73;;
67839;SDS011;54636;51.684;5.142;2023-06-22T08:41:16;12.55;;;11.05;;
67839;SDS011;54636;51.684;5.142;2023-06-22T08:43:42;13.80;;;12.50;;
67839;SDS011;54636;51.684;5.142;2023-06-22T08:46:09;15.70;;;12.55;;
67839;SDS011;54636;51.684;5.142;2023-06-22T08:48:34;15.50;;;12.18;;
67839;SDS011;54636;51.684;5.142;2023-06-22T08:51:04;17.30;;;12.65;;
67839;SDS011;54636;51.684;5.142;2023-06-22T08:53:29;14.57;;;11.57;;
67839;SDS011;54636;51.684;5.142;2023-06-22T08:55:55;13.98;;;12.55;;
67839;SDS011;54636;51.684;5.142;2023-06-22T08:58:20;13.43;;;12.02;;
67839;SDS011;54636;51.684;5.142;2023-06-22T09:00:46;14.10;;;12.60;;
67839;SDS011;54636;51.684;5.142;2023-06-22T09:03:12;13.85;;;12.43;;
67839;SDS011;54636;51.684;5.142;2023-06-22T09:05:37;16.85;;;12.25;;
67839;SDS011;54636;51.684;5.142;2023-06-22T09:08:03;13.05;;;11.85;;
67839;SDS011;54636;51.684;5.142;2023-06-22T09:10:29;16.95;;;12.73;;
67839;SDS011;54636;51.684;5.142;2023-06-22T09:12:54;17.23;;;13.20;;
67839;SDS011;54636;51.684;5.142;2023-06-22T09:15:20;13.27;;;12.10;;
67839;SDS011;54636;51.684;5.142;2023-06-22T09:17:45;15.23;;;13.63;;
67839;SDS011;54636;51.684;5.142;2023-06-22T09:20:11;17.23;;;13.40;;
67839;SDS011;54636;51.684;5.142;2023-06-22T09:22:37;14.07;;;12.75;;
67839;SDS011;54636;51.684;5.142;2023-06-22T09:25:03;14.20;;;12.85;;
67839;SDS011;54636;51.684;5.142;2023-06-22T09:27:29;14.77;;;13.13;;
67839;SDS011;54636;51.684;5.142;2023-06-22T09:29:55;14.50;;;12.90;;
67839;SDS011;54636;51.684;5.142;2023-06-22T09:32:20;14.25;;;12.77;;
67839;SDS011;54636;51.684;5.142;2023-06-22T09:34:46;15.30;;;12.00;;
67839;SDS011;54636;51.684;5.142;2023-06-22T09:37:11;14.43;;;13.02;;
67839;SDS011;54636;51.684;5.142;2023-06-22T09:39:37;13.15;;;11.88;;
67839;SDS011;54636;51.684;5.142;2023-06-22T09:42:02;14.07;;;11.57;;
67839;SDS011;54636;51.684;5.142;2023-06-22T09:44:28;11.93;;;10.70;;
67839;SDS011;54636;51.684;5.142;2023-06-22T09:46:53;13.63;;;11.48;;
67839;SDS011;54636;51.684;5.142;2023-06-22T09:49:18;15.82;;;10.45;;
67839;SDS011;54636;51.684;5.142;2023-06-22T09:51:44;11.73;;;10.60;;
67839;SDS011;54636;51.684;5.142;2023-06-22T09:54:09;11.82;;;10.73;;
67839;SDS011;54636;51.684;5.142;2023-06-22T09:56:38;13.23;;;10.30;;
67839;SDS011;54636;51.684;5.142;2023-06-22T09:59:03;16.38;;;10.50;;
67839;SDS011;54636;51.684;5.142;2023-06-22T10:01:28;11.88;;;9.45;;
67839;SDS011;54636;51.684;5.142;2023-06-22T10:03:55;10.75;;;9.80;;
67839;SDS011;54636;51.684;5.142;2023-06-22T10:06:21;10.40;;;9.43;;
67839;SDS011;54636;51.684;5.142;2023-06-22T10:08:47;11.40;;;9.38;;
67839;SDS011;54636;51.684;5.142;2023-06-22T10:11:15;10.35;;;9.45;;
67839;SDS011;54636;51.684;5.142;2023-06-22T10:13:41;11.15;;;10.15;;
67839;SDS011;54636;51.684;5.142;2023-06-22T10:16:06;10.48;;;9.18;;
67839;SDS011;54636;51.684;5.142;2023-06-22T10:18:32;9.75;;;8.65;;
67839;SDS011;54636;51.684;5.142;2023-06-22T10:20:57;17.13;;;9.85;;
67839;SDS011;54636;51.684;5.142;2023-06-22T10:23:23;14.45;;;9.35;;
67839;SDS011;54636;51.684;5.142;2023-06-22T10:25:48;13.73;;;9.73;;
67839;SDS011;54636;51.684;5.142;2023-06-22T10:28:13;14.93;;;9.02;;
67839;SDS011;54636;51.684;5.142;2023-06-22T10:30:40;14.80;;;8.90;;
67839;SDS011;54636;51.684;5.142;2023-06-22T10:33:09;9.65;;;8.52;;
67839;SDS011;54636;51.684;5.142;2023-06-22T10:35:35;15.18;;;8.35;;
67839;SDS011;54636;51.684;5.142;2023-06-22T10:38:05;11.65;;;8.85;;
67839;SDS011;54636;51.684;5.142;2023-06-22T10:40:31;9.13;;;8.27;;
67839;SDS011;54636;51.684;5.142;2023-06-22T10:42:57;8.52;;;7.70;;
67839;SDS011;54636;51.684;5.142;2023-06-22T10:45:22;14.63;;;8.20;;
67839;SDS011;54636;51.684;5.142;2023-06-22T10:47:48;11.02;;;7.97;;
67839;SDS011;54636;51.684;5.142;2023-06-22T10:50:14;9.48;;;8.15;;
67839;SDS011;54636;51.684;5.142;2023-06-22T10:52:40;8.90;;;7.40;;
67839;SDS011;54636;51.684;5.142;2023-06-22T10:55:08;9.57;;;7.85;;
67839;SDS011;54636;51.684;5.142;2023-06-22T10:57:34;10.95;;;8.18;;
67839;SDS011;54636;51.684;5.142;2023-06-22T11:00:01;9.70;;;8.55;;
67839;SDS011;54636;51.684;5.142;2023-06-22T11:02:29;17.20;;;7.95;;
67839;SDS011;54636;51.684;5.142;2023-06-22T11:04:54;9.40;;;7.78;;
67839;SDS011;54636;51.684;5.142;2023-06-22T11:07:20;11.13;;;7.88;;
67839;SDS011;54636;51.684;5.142;2023-06-22T11:09:45;8.55;;;7.75;;
67839;SDS011;54636;51.684;5.142;2023-06-22T11:12:10;12.75;;;8.25;;
67839;SDS011;54636;51.684;5.142;2023-06-22T11:14:36;9.27;;;8.40;;
67839;SDS011;54636;51.684;5.142;2023-06-22T11:17:01;10.60;;;8.75;;
67839;SDS011;54636;51.684;5.142;2023-06-22T11:19:27;10.90;;;9.10;;
67839;SDS011;54636;51.684;5.142;2023-06-22T11:21:52;12.07;;;8.43;;
67839;SDS011;54636;51.684;5.142;2023-06-22T11:24:18;8.63;;;7.85;;
67839;SDS011;54636;51.684;5.142;2023-06-22T11:26:43;9.23;;;7.63;;
67839;SDS011;54636;51.684;5.142;2023-06-22T11:29:09;10.00;;;8.18;;
67839;SDS011;54636;51.684;5.142;2023-06-22T11:31:34;9.80;;;8.05;;
67839;SDS011;54636;51.684;5.142;2023-06-22T11:34:01;12.40;;;8.50;;
67839;SDS011;54636;51.684;5.142;2023-06-22T11:36:27;11.55;;;8.10;;
67839;SDS011;54636;51.684;5.142;2023-06-22T11:38:54;9.70;;;8.55;;
67839;SDS011;54636;51.684;5.142;2023-06-22T11:41:19;9.57;;;8.70;;
67839;SDS011;54636;51.684;5.142;2023-06-22T11:43:45;9.18;;;8.18;;
67839;SDS011;54636;51.684;5.142;2023-06-22T11:46:10;8.45;;;7.68;;
67839;SDS011;54636;51.684;5.142;2023-06-22T11:48:36;8.40;;;7.70;;
67839;SDS011;54636;51.684;5.142;2023-06-22T11:51:02;11.57;;;8.45;;
67839;SDS011;54636;51.684;5.142;2023-06-22T11:53:28;9.93;;;8.85;;
67839;SDS011;54636;51.684;5.142;2023-06-22T11:55:54;10.13;;;9.13;;
67839;SDS011;54636;51.684;5.142;2023-06-22T11:58:20;11.70;;;8.95;;
67839;SDS011;54636;51.684;5.142;2023-06-22T12:00:47;11.02;;;9.93;;
67839;SDS011;54636;51.684;5.142;2023-06-22T12:03:13;11.35;;;10.32;;
67839;SDS011;54636;51.684;5.142;2023-06-22T12:05:39;10.60;;;9.65;;
67839;SDS011;54636;51.684;5.142;2023-06-22T12:08:05;12.30;;;9.75;;
67839;SDS011;54636;51.684;5.142;2023-06-22T12:10:31;12.85;;;10.43;;
67839;SDS011;54636;51.684;5.142;2023-06-22T12:12:56;20.30;;;10.70;;
67839;SDS011;54636;51.684;5.142;2023-06-22T12:15:25;10.02;;;9.07;;
67839;SDS011;54636;51.684;5.142;2023-06-22T12:17:51;11.32;;;9.63;;
67839;SDS011;54636;51.684;5.142;2023-06-22T12:20:16;9.98;;;9.00;;
67839;SDS011;54636;51.684;5.142;2023-06-22T12:22:43;9.32;;;8.32;;
67839;SDS011;54636;51.684;5.142;2023-06-22T12:25:08;10.23;;;8.90;;
67839;SDS011;54636;51.684;5.142;2023-06-22T12:27:34;10.80;;;9.35;;
67839;SDS011;54636;51.684;5.142;2023-06-22T12:30:00;12.77;;;10.30;;
67839;SDS011;54636;51.684;5.142;2023-06-22T12:32:26;12.48;;;10.35;;
67839;SDS011;54636;51.684;5.142;2023-06-22T12:34:52;10.82;;;9.32;;
67839;SDS011;54636;51.684;5.142;2023-06-22T12:37:17;11.65;;;9.55;;
67839;SDS011;54636;51.684;5.142;2023-06-22T12:39:43;10.90;;;9.80;;
67839;SDS011;54636;51.684;5.142;2023-06-22T12:42:09;11.02;;;9.68;;
67839;SDS011;54636;51.684;5.142;2023-06-22T12:44:37;11.13;;;9.77;;
67839;SDS011;54636;51.684;5.142;2023-06-22T12:47:03;10.63;;;9.57;;
67839;SDS011;54636;51.684;5.142;2023-06-22T12:49:29;15.60;;;10.10;;
67839;SDS011;54636;51.684;5.142;2023-06-22T12:51:54;15.25;;;10.20;;
67839;SDS011;54636;51.684;5.142;2023-06-22T12:54:19;10.85;;;9.75;;
67839;SDS011;54636;51.684;5.142;2023-06-22T12:56:45;11.48;;;10.30;;
67839;SDS011;54636;51.684;5.142;2023-06-22T12:59:10;14.00;;;10.20;;
67839;SDS011;54636;51.684;5.142;2023-06-22T13:01:36;11.70;;;10.82;;
67839;SDS011;54636;51.684;5.142;2023-06-22T13:04:02;13.32;;;10.95;;
67839;SDS011;54636;51.684;5.142;2023-06-22T13:06:27;12.63;;;11.43;;
67839;SDS011;54636;51.684;5.142;2023-06-22T13:08:53;12.73;;;11.18;;
67839;SDS011;54636;51.684;5.142;2023-06-22T13:11:18;13.23;;;11.88;;
67839;SDS011;54636;51.684;5.142;2023-06-22T13:13:44;12.88;;;11.10;;
67839;SDS011;54636;51.684;5.142;2023-06-22T13:16:10;14.00;;;12.35;;
67839;SDS011;54636;51.684;5.142;2023-06-22T13:18:36;13.75;;;12.65;;
67839;SDS011;54636;51.684;5.142;2023-06-22T13:21:02;13.60;;;12.30;;
67839;SDS011;54636;51.684;5.142;2023-06-22T13:23:28;14.27;;;11.95;;
67839;SDS011;54636;51.684;5.142;2023-06-22T13:25:53;12.93;;;11.73;;
67839;SDS011;54636;51.684;5.142;2023-06-22T13:28:19;14.45;;;12.65;;
67839;SDS011;54636;51.684;5.142;2023-06-22T13:30:46;13.70;;;12.48;;
67839;SDS011;54636;51.684;5.142;2023-06-22T13:33:15;14.07;;;12.85;;
67839;SDS011;54636;51.684;5.142;2023-06-22T13:35:40;16.13;;;14.10;;
67839;SDS011;54636;51.684;5.142;2023-06-22T13:38:07;15.43;;;14.00;;
67839;SDS011;54636;51.684;5.142;2023-06-22T13:40:34;16.92;;;15.23;;
67839;SDS011;54636;51.684;5.142;2023-06-22T13:42:59;17.95;;;16.15;;
67839;SDS011;54636;51.684;5.142;2023-06-22T13:45:25;18.77;;;16.90;;
67839;SDS011;54636;51.684;5.142;2023-06-22T13:47:51;18.85;;;15.48;;
67839;SDS011;54636;51.684;5.142;2023-06-22T13:50:16;20.45;;;17.33;;
67839;SDS011;54636;51.684;5.142;2023-06-22T13:52:42;17.52;;;15.93;;
67839;SDS011;54636;51.684;5.142;2023-06-22T13:55:07;19.83;;;17.75;;
67839;SDS011;54636;51.684;5.142;2023-06-22T13:57:33;21.02;;;18.80;;
67839;SDS011;54636;51.684;5.142;2023-06-22T13:59:59;19.30;;;17.30;;
67839;SDS011;54636;51.684;5.142;2023-06-22T14:02:25;22.27;;;17.98;;
67839;SDS011;54636;51.684;5.142;2023-06-22T14:04:51;21.13;;;19.05;;
67839;SDS011;54636;51.684;5.142;2023-06-22T14:07:17;19.70;;;17.77;;
67839;SDS011;54636;51.684;5.142;2023-06-22T14:09:44;23.02;;;19.05;;
67839;SDS011;54636;51.684;5.142;2023-06-22T14:12:10;20.75;;;18.73;;
67839;SDS011;54636;51.684;5.142;2023-06-22T14:14:36;19.73;;;17.73;;
67839;SDS011;54636;51.684;5.142;2023-06-22T14:17:01;21.48;;;19.38;;
67839;SDS011;54636;51.684;5.142;2023-06-22T14:19:27;22.33;;;20.00;;
67839;SDS011;54636;51.684;5.142;2023-06-22T14:21:52;22.33;;;19.95;;
67839;SDS011;54636;51.684;5.142;2023-06-22T14:24:18;24.17;;;21.48;;
67839;SDS011;54636;51.684;5.142;2023-06-22T14:26:43;31.48;;;23.95;;
67839;SDS011;54636;51.684;5.142;2023-06-22T14:29:09;26.63;;;23.38;;
67839;SDS011;54636;51.684;5.142;2023-06-22T14:31:34;28.52;;;25.50;;
67839;SDS011;54636;51.684;5.142;2023-06-22T14:34:00;28.42;;;25.35;;
67839;SDS011;54636;51.684;5.142;2023-06-22T14:36:27;26.75;;;23.98;;